aviador You're here:

YCFS Decoded Metar

in
Report Time2017-06-24 17:00:00
UTC Time2017-06-24 17:21:51
Flight Rules vfr VFR
Wind330° at 05 kt
W.Decomp.*RWY 28: 3.2 kt HW 3.8 kt RCW
RWY 03: 2.5 kt HW 4.3 kt LCW
W.Rank330° ranks 9
Current wind is below 330° avg. (6.0)
Visibility9999 m
Phenomena:N/A
Clouds:N/A
Expected CloudBase > 800 ft AGL from Temp-Dew spread
CeilingNone
Temp10°C
Dew Point08°C (88% RH)
AAT7.8°C
QNH1017 hPa
Raw Report
METAR YCFS 241700Z AUTO 33005KT 9999 // NCD 10/08 Q1017=

Extra information for YCFS:More info

Social comments